createdAt,value
2023-03-28T06:23:45.320Z,141309.25
2023-03-28T06:28:59.301Z,141333.91
2023-03-28T06:34:18.726Z,141336.38
2023-03-28T06:39:31.794Z,141235.38
2023-03-28T06:44:36.133Z,141130.72
2023-03-28T06:49:42.599Z,141266.16
2023-03-28T06:55:06.314Z,141202.13
2023-03-28T07:00:10.375Z,141274.78
2023-03-28T07:05:32.372Z,141418.94
2023-03-28T07:10:38.442Z,141352.41
2023-03-28T07:15:41.932Z,141396.78
2023-03-28T07:20:51.954Z,141210.75
2023-03-28T07:26:10.082Z,141335.13
2023-03-28T07:31:13.926Z,141362.25
2023-03-28T07:36:18.619Z,141264.94
2023-03-28T07:41:27.312Z,141328.97
2023-03-28T07:46:32.158Z,141268.63
2023-03-28T07:51:35.990Z,141108.59
2023-03-28T07:56:41.236Z,141011.38
2023-03-28T08:02:22.892Z,140845.31
2023-03-28T08:07:27.191Z,140781.41
2023-03-28T08:12:32.730Z,140797.34
2023-03-28T08:17:43.314Z,140851.47
2023-03-28T08:22:48.463Z,140866.22
2023-03-28T08:28:23.163Z,140958.47
2023-03-28T08:33:27.066Z,140957.25
2023-03-28T08:38:31.372Z,140901.88
2023-03-28T08:43:44.519Z,140866.22
2023-03-28T08:48:50.157Z,141001.56
2023-03-28T08:54:00.975Z,141129.47
2023-03-28T08:59:08.452Z,141048.28
2023-03-28T09:04:21.725Z,141002.78
2023-03-28T09:09:36.299Z,141059.38
2023-03-28T09:15:08.438Z,140952.34
2023-03-28T09:20:16.457Z,141022.44
2023-03-28T09:25:45.813Z,141015.06
2023-03-28T09:30:55.509Z,141091.38
2023-03-28T09:35:59.409Z,141011.38
2023-03-28T09:41:09.760Z,141104.91
2023-03-28T09:46:19.616Z,141130.72
2023-03-28T09:51:43.522Z,141263.72
2023-03-28T09:56:47.702Z,141231.69
2023-03-28T10:02:27.504Z,141176.28
2023-03-28T10:07:34.893Z,141161.47
2023-03-28T10:12:56.953Z,141028.56
2023-03-28T10:18:05.471Z,141027.34
2023-03-28T10:23:14.915Z,141145.50
2023-03-28T10:28:23.222Z,141156.56
2023-03-28T10:33:31.590Z,141263.72
2023-03-28T10:38:53.640Z,141239.06
2023-03-28T10:44:17.480Z,141343.78
2023-03-28T10:49:30.465Z,141261.25
2023-03-28T10:54:54.986Z,141216.91
2023-03-28T11:00:19.333Z,141303.09
2023-03-28T11:05:29.244Z,141301.88
2023-03-28T11:10:38.181Z,141353.63
2023-03-28T11:15:59.780Z,141257.56
2023-03-28T11:21:34.785Z,141393.03
2023-03-28T11:27:14.977Z,141518.75
2023-03-28T11:32:59.255Z,141592.75
2023-03-28T11:38:10.423Z,141669.19
2023-03-28T11:43:21.661Z,141590.28
2023-03-28T11:48:27.656Z,141585.31
2023-03-28T11:53:37.535Z,141584.09
2023-03-28T11:58:44.759Z,141558.19
2023-03-28T12:03:56.506Z,141581.63
2023-03-28T12:09:04.803Z,141786.41
2023-03-28T12:14:24.741Z,141808.63
2023-03-28T12:19:33.085Z,141819.78
2023-03-28T12:24:46.790Z,141708.69
2023-03-28T12:29:59.483Z,141601.38
2023-03-28T12:35:08.682Z,141754.31
2023-03-28T12:40:39.312Z,141903.72
2023-03-28T12:45:47.479Z,141875.31
2023-03-28T12:50:53.998Z,141822.22
2023-03-28T12:55:59.077Z,141922.22
2023-03-28T13:01:16.731Z,142007.38
2023-03-28T13:06:43.947Z,141790.16
2023-03-28T13:11:53.917Z,141725.94
2023-03-28T13:16:58.228Z,141622.34
2023-03-28T13:22:04.066Z,141581.63
2023-03-28T13:27:13.107Z,141560.66
2023-03-28T13:32:17.932Z,141529.81
2023-03-28T13:37:24.148Z,141577.94
2023-03-28T13:42:30.603Z,141796.31
2023-03-28T13:47:38.261Z,141948.16
2023-03-28T13:52:41.722Z,141821.00
2023-03-28T13:57:50.386Z,141658.09
2023-03-28T14:02:54.962Z,141748.16
2023-03-28T14:08:05.607Z,141860.47
2023-03-28T14:13:13.221Z,141745.69
2023-03-28T14:18:18.249Z,141883.94
2023-03-28T14:23:30.925Z,141913.59
2023-03-28T14:28:41.388Z,141901.25
2023-03-28T14:33:47.672Z,141806.16
2023-03-28T14:38:51.728Z,141821.00
2023-03-28T14:43:57.588Z,141918.50
2023-03-28T14:49:02.584Z,141782.72
2023-03-28T14:54:06.892Z,141698.78
2023-03-28T14:59:15.939Z,141707.47
2023-03-28T15:04:21.425Z,141824.69
2023-03-28T15:09:29.657Z,141740.78
2023-03-28T15:14:41.678Z,141737.06
2023-03-28T15:19:46.808Z,141760.53
2023-03-28T15:24:51.783Z,141822.22
2023-03-28T15:29:56.882Z,141751.84
2023-03-28T15:35:02.322Z,141729.63
2023-03-28T15:40:12.980Z,141754.31
2023-03-28T15:45:29.792Z,141733.38
2023-03-28T15:50:36.412Z,141729.63
2023-03-28T15:55:41.179Z,141760.53
2023-03-28T16:00:47.521Z,141596.44
2023-03-28T16:05:52.046Z,141543.41
2023-03-28T16:10:55.517Z,141513.81
2023-03-28T16:16:16.365Z,141486.75
2023-03-28T16:21:30.498Z,141499.06
2023-03-28T16:26:34.790Z,141513.81
2023-03-28T16:31:39.747Z,141516.28
2023-03-28T16:36:50.432Z,141545.88
2023-03-28T16:41:57.374Z,141526.13
2023-03-28T16:47:03.180Z,141540.94
2023-03-28T16:52:07.992Z,141526.13
2023-03-28T16:57:12.495Z,141523.66
2023-03-28T17:02:32.305Z,141528.59
2023-03-28T17:07:36.181Z,141534.78
2023-03-28T17:12:40.390Z,141522.44
2023-03-28T17:17:45.800Z,141487.97
2023-03-28T17:22:49.246Z,141442.34
2023-03-28T17:28:03.104Z,141409.09
2023-03-28T17:33:11.343Z,141357.31
2023-03-28T17:38:16.791Z,141321.59
2023-03-28T17:43:20.410Z,141285.88
2023-03-28T17:48:25.562Z,141256.31
2023-03-28T17:53:29.589Z,141230.47
2023-03-28T19:12:57.977Z,141033.53
2023-03-28T19:18:02.904Z,141037.22
2023-03-28T19:23:06.509Z,141033.53
2023-03-28T19:28:11.699Z,141027.34
2023-03-28T19:33:19.749Z,141031.09
2023-03-28T19:38:23.657Z,141026.13
2023-03-28T19:43:31.682Z,141034.78
2023-03-28T19:48:35.939Z,141051.97
2023-03-28T19:53:40.083Z,141048.28
2023-03-28T19:58:44.979Z,141039.69
2023-03-28T20:03:53.240Z,141019.97
2023-03-28T20:08:56.965Z,141017.53
2023-03-28T20:14:02.053Z,141001.56
2023-03-28T20:19:05.777Z,140991.69
2023-03-28T20:24:12.456Z,140999.06
2023-03-28T20:29:17.336Z,140973.22
2023-03-28T20:34:22.462Z,140973.22
2023-03-28T20:39:28.759Z,140971.97
2023-03-28T20:44:38.013Z,140952.34
2023-03-28T20:49:46.388Z,140940.00
2023-03-28T20:54:50.027Z,140932.63
2023-03-28T20:59:55.387Z,140911.72
2023-03-28T21:04:58.846Z,140895.75
2023-03-28T21:10:04.978Z,140885.88
2023-03-28T21:15:10.680Z,140869.91
2023-03-28T21:20:14.072Z,140852.69
2023-03-28T21:25:18.518Z,140840.41
2023-03-28T21:30:24.016Z,140835.50
2023-03-28T21:35:27.803Z,140835.50
